Kingsland, AR

5:00 AM CDT on April 26, 2017 (GMT -0500)
Kingsland | | Change Station
Active Advisory: Lake Wind Advisory

Elev 269 ft 33.86 °N, 92.33 °W | Updated 26 seconds ago

Overcast
Overcast
70.0 °F
Feels Like 70.0 °F
N
0.0
Wind Variable Wind from NW

Today
High -- | Low -- °F
--% Chance of Precip.
Yesterday
High -- | Low -- °F
Precip. -- in
Pressure 29.57 in
Visibility 10.0 miles
Clouds Scattered Clouds 3000 ft
Overcast 4400 ft
Dew Point 67 °F
Humidity 89%
Rainfall 0.00 in
Snow Depth Not available.
6:25 AM 7:49 PM
Waning Crescent, 0% visible
METAR KPBF 260953Z AUTO 15007KT 10SM SCT030 OVC044 21/17 A2958 RMK AO2 SLP014 T02060167
Pressure 29.57 in
Visibility 10.0 miles
Clouds Scattered Clouds 3000 ft
Overcast 4400 ft
Dew Point 67 °F
Humidity 89%
Rainfall 0.00 in
Snow Depth Not available.
6:25 AM 7:49 PM
Waning Crescent, 0% visible
METAR KPBF 260953Z AUTO 15007KT 10SM SCT030 OVC044 21/17 A2958 RMK AO2 SLP014 T02060167

Get Your Daily Forecast Email!

Thanks for signing up!

Be on the lookout for a verification email in your inbox.

You'll start receiving severe weather alerts in your inbox..

×

10-Day Weather Forecast

Almanac

Astronomy

Apr. 26, 2017 Rise Set
Actual Time
Civil Twilight
Nautical Twilight
Astronomical Twilight
Moon
Length of Visible Light
Length of Day
Tomorrow will be .
, % of the Moon is Illuminated

Today's Extremes

State Highs State Lows

Community

WunderPhotos

WunderBlog® & News

Nearby

Air Quality

  Air Quality AQ Index Pollutant
Not available.

Snow Depth

Station Depth Elevation

Earthquake Activity

City Distance Mag. Time & Date
Minimum magnitude displayed is 2.5.

Coastal Water Temperatures

Place Temperature

Stations

Nearby Weather Stations

Station Location Temp. Windchill Dew Point Humidity Wind Precip. Elev Updated Type
                   

Watches & Warnings

Lake Wind Advisory
Issued: 4:19 AM CDT Apr. 26, 2017 – National Weather Service

... Lake Wind Advisory in effect from 9 am this morning to 8 PM
CDT this evening...

The National Weather Service in Little Rock has issued a lake
Wind Advisory, which is in effect from 9 am this morning to 8 PM
CDT this evening.

* Event... south winds will be elevated and produce wind
conditions.

* Areas affected... much of Arkansas.

* Timing... by 9 am CDT winds will become elevated and last to
earlier evening around 8 PM CDT.

* Winds... south winds will reach 15 to 25 mph with some gusts to
30 to 35 mph.

* Impacts... boaters on area lakes and rivers should use extra
caution due to the expected high winds.

Precautionary/preparedness actions...

A lake Wind Advisory indicates that winds will cause rough chop
on area lakes, as well as some areas rivers. Small boats will be
especially prone to capsizing.



59